< < Back
Terminal Aerodrome Forecast


Current Version              Previous Versions:   1  2  3  4  5  6  7  8  9  

Terminal Aerodrome Forecast

560
FTUS42 KJAX 011147
TAFJAX
TAF
KJAX 011147Z 0112/0212 03006KT 3SM -RA BR OVC003
     FM011400 06008KT 4SM -RA BR OVC004
     FM011800 09006KT 5SM BR OVC007
     FM020200 03003KT 3SM BR OVC004=

Latest METAR

499
SAUS80 KWBC 011900 RRJ
MTRJAX
METAR KJAX 011856Z 03005KT 10SM OVC010 16/14 A3037 RMK AO2 SLP283
T01560139


USA.gov is the U.S. government's official web portal to all federal, state and local government web resources and services.